Time;durP1;ratioP1;P1;durP2;ratioP2;P2;SDS_P1;SDS_P2;PMS_P1;PMS_P2;Temp;Humidity;BMP_temperature;BMP_pressure;BME280_temperature;BME280_humidity;BME280_pressure;Samples;Min_cycle;Max_cycle;Signal;HPM_P1;HPM_P2
2022/12/30 00:00:06;;;;;;;4.53;1.83;;;11.10;99.90;;;;;;5012783;28;20185;-70
2022/12/30 00:02:31;;;;;;;3.13;1.60;;;11.20;99.90;;;;;;5013471;28;20188;-66
2022/12/30 00:04:57;;;;;;;4.17;2.50;;;11.20;99.90;;;;;;5010518;28;21018;-67
2022/12/30 00:07:22;;;;;;;8.87;2.10;;;11.20;99.90;;;;;;5013580;28;20632;-67
2022/12/30 00:09:48;;;;;;;2.60;1.87;;;11.20;99.90;;;;;;5011865;28;20765;-67
2022/12/30 00:34:31;;;;;;;3.40;1.43;;;11.10;99.90;;;;;;5015802;28;20458;-68
2022/12/30 00:36:58;;;;;;;5.00;2.23;;;11.00;99.90;;;;;;5009186;28;20466;-68
2022/12/30 00:39:23;;;;;;;3.73;1.90;;;11.00;99.90;;;;;;5013465;28;20481;-66
2022/12/30 00:44:33;;;;;;;2.53;1.93;;;11.00;99.90;;;;;;5014692;28;20623;-67
2022/12/30 00:46:59;;;;;;;6.03;1.90;;;11.10;99.90;;;;;;5016298;28;20538;-67
2022/12/30 00:57:38;;;;;;;3.40;1.93;;;11.00;99.90;;;;;;5012401;28;20467;-68
2022/12/30 01:00:08;;;;;;;2.93;1.47;;;10.90;99.90;;;;;;5016059;28;20554;-68
2022/12/30 01:02:34;;;;;;;3.70;1.90;;;10.90;99.90;;;;;;5014339;28;20439;-67
2022/12/30 01:04:59;;;;;;;6.80;2.10;;;10.90;99.90;;;;;;5011609;28;20442;-68
2022/12/30 01:07:27;;;;;;;3.40;1.70;;;10.80;99.90;;;;;;5010226;28;20502;-68
2022/12/30 01:09:53;;;;;;;3.73;1.80;;;10.80;99.90;;;;;;5008701;28;20188;-68
2022/12/30 01:12:18;;;;;;;3.53;1.60;;;10.80;99.90;;;;;;5016271;28;20489;-71
2022/12/30 01:14:48;;;;;;;3.30;1.40;;;10.70;99.90;;;;;;5013770;28;20192;-69
2022/12/30 01:17:23;;;;;;;3.40;1.90;;;10.60;99.90;;;;;;5012683;28;20274;-69
2022/12/30 01:19:48;;;;;;;2.97;1.67;;;10.60;99.90;;;;;;5015029;28;20458;-69
2022/12/30 01:22:14;;;;;;;4.07;1.67;;;10.50;99.90;;;;;;5014103;28;21007;-69
2022/12/30 01:24:40;;;;;;;2.87;1.50;;;10.50;99.90;;;;;;5012313;28;20612;-69
2022/12/30 01:27:06;;;;;;;4.83;1.53;;;10.60;99.90;;;;;;5012165;28;20466;-68
2022/12/30 01:29:36;;;;;;;3.97;1.87;;;10.60;99.90;;;;;;5011701;28;20670;-67
2022/12/30 01:32:05;;;;;;;2.87;1.87;;;10.50;99.90;;;;;;5012800;28;20459;-68
2022/12/30 01:34:31;;;;;;;3.27;1.87;;;10.40;99.90;;;;;;5020490;28;20901;-68
2022/12/30 01:36:56;;;;;;;5.70;1.70;;;10.40;99.90;;;;;;5013974;28;20454;-67
2022/12/30 01:39:22;;;;;;;7.10;2.10;;;10.40;99.90;;;;;;5015944;28;20212;-69
2022/12/30 01:41:48;;;;;;;2.40;1.50;;;10.50;99.90;;;;;;5014301;28;20213;-69
2022/12/30 01:44:51;;;;;;;3.17;1.90;;;10.50;99.90;;;;;;5015992;28;20937;-68
2022/12/30 01:47:41;;;;;;;2.60;1.63;;;10.30;99.90;;;;;;5018939;28;20312;-69
2022/12/30 01:50:09;;;;;;;4.90;1.60;;;10.30;99.90;;;;;;5016036;28;20823;-69
2022/12/30 01:52:39;;;;;;;3.03;2.00;;;10.20;99.90;;;;;;5015635;28;20454;-68
2022/12/30 01:55:09;;;;;;;5.33;1.83;;;10.20;99.90;;;;;;5008987;28;20442;-69
2022/12/30 01:57:39;;;;;;;7.10;1.80;;;10.30;99.90;;;;;;5013111;28;20439;-68
2022/12/30 02:00:07;;;;;;;3.13;1.80;;;10.30;99.90;;;;;;5008286;28;20484;-69
2022/12/30 02:02:33;;;;;;;5.03;1.80;;;10.30;99.90;;;;;;5011839;28;20416;-68
2022/12/30 02:05:01;;;;;;;2.67;1.60;;;10.30;99.90;;;;;;5018543;28;20503;-68
2022/12/30 02:07:32;;;;;;;8.80;2.00;;;10.30;99.90;;;;;;5011309;28;20250;-68
2022/12/30 02:09:59;;;;;;;6.13;1.97;;;10.30;99.90;;;;;;5012722;28;20737;-68
2022/12/30 02:12:24;;;;;;;3.60;2.00;;;10.30;99.90;;;;;;5017325;28;20997;-68
2022/12/30 02:14:51;;;;;;;4.13;1.70;;;10.30;99.90;;;;;;5016630;28;20427;-68
2022/12/30 02:17:44;;;;;;;2.60;1.47;;;10.20;99.90;;;;;;5016996;28;20208;-68
2022/12/30 02:20:09;;;;;;;4.23;1.67;;;10.20;99.90;;;;;;5016954;28;20447;-67
2022/12/30 02:23:05;;;;;;;2.00;1.50;;;10.20;99.90;;;;;;5014094;28;20440;-68
2022/12/30 02:26:12;;;;;;;3.70;1.80;;;10.20;99.90;;;;;;5016929;28;20618;-68
2022/12/30 02:29:12;;;;;;;6.23;1.77;;;10.20;99.90;;;;;;5010847;28;20443;-68
2022/12/30 02:32:09;;;;;;;2.30;1.77;;;10.10;99.90;;;;;;5012913;28;20462;-68
2022/12/30 02:34:50;;;;;;;3.77;1.60;;;10.10;99.90;;;;;;5010329;28;20447;-68
2022/12/30 02:37:49;;;;;;;2.17;1.30;;;10.00;99.90;;;;;;5012689;28;20454;-68
2022/12/30 02:40:26;;;;;;;3.40;1.70;;;10.00;99.90;;;;;;5014749;28;20439;-68
2022/12/30 02:46:03;;;;;;;3.50;1.70;;;10.10;99.90;;;;;;5015778;28;20462;-68
2022/12/30 02:48:32;;;;;;;3.70;1.80;;;10.20;99.90;;;;;;5014076;28;20422;-70
2022/12/30 02:53:44;;;;;;;3.73;1.70;;;10.20;99.90;;;;;;5014815;28;20531;-70
2022/12/30 02:56:10;;;;;;;2.90;1.73;;;10.10;99.90;;;;;;5014673;28;20466;-70
2022/12/30 02:58:38;;;;;;;2.43;1.60;;;10.10;99.90;;;;;;5016507;28;20215;-69
2022/12/30 03:04:30;;;;;;;17.13;7.10;;;10.20;99.90;;;;;;5016336;28;20511;-69
2022/12/30 03:07:22;;;;;;;3.83;2.33;;;10.30;99.90;;;;;;5015806;28;20453;-69
2022/12/30 03:13:11;;;;;;;3.90;1.83;;;10.40;99.90;;;;;;5014964;28;20812;-69
2022/12/30 03:16:05;;;;;;;2.67;2.13;;;10.40;99.90;;;;;;5022872;28;20466;-69
2022/12/30 03:18:33;;;;;;;2.77;1.63;;;10.20;99.90;;;;;;5018568;28;20471;-69
2022/12/30 03:21:02;;;;;;;4.73;1.70;;;10.20;99.90;;;;;;5015187;28;21935;-69
2022/12/30 03:29:00;;;;;;;3.20;1.70;;;10.20;99.90;;;;;;5013567;28;20676;-69
2022/12/30 03:31:25;;;;;;;2.27;1.50;;;10.20;99.90;;;;;;5017025;28;20557;-69
2022/12/30 03:33:51;;;;;;;2.73;1.70;;;10.10;99.90;;;;;;5020785;28;20760;-69
2022/12/30 03:36:20;;;;;;;3.00;2.10;;;10.10;99.90;;;;;;5019341;28;20208;-69
2022/12/30 03:38:51;;;;;;;2.33;1.50;;;10.00;99.90;;;;;;5017583;28;21848;-69
2022/12/30 03:41:19;;;;;;;2.80;1.40;;;10.00;99.90;;;;;;5016666;28;20438;-69
2022/12/30 03:43:45;;;;;;;3.30;1.70;;;10.00;99.90;;;;;;5019308;28;20943;-70
2022/12/30 03:46:11;;;;;;;5.20;1.77;;;9.90;99.90;;;;;;5019053;28;20473;-71
2022/12/30 03:48:37;;;;;;;3.83;1.60;;;9.90;99.90;;;;;;5013111;28;20274;-71
2022/12/30 03:51:03;;;;;;;3.60;1.80;;;9.90;99.90;;;;;;5016054;28;20496;-70
2022/12/30 03:53:28;;;;;;;4.37;1.77;;;9.90;99.90;;;;;;5019536;28;20707;-71
2022/12/30 03:55:54;;;;;;;2.67;1.50;;;10.00;99.90;;;;;;5015082;28;20266;-71
2022/12/30 03:58:19;;;;;;;2.00;1.50;;;9.90;99.90;;;;;;5015870;28;20251;-72
2022/12/30 04:00:45;;;;;;;2.03;1.50;;;9.90;99.90;;;;;;5013522;28;20221;-71
2022/12/30 04:03:10;;;;;;;2.90;1.70;;;9.90;99.90;;;;;;5017640;28;20188;-69
2022/12/30 04:05:36;;;;;;;2.50;1.70;;;9.90;99.90;;;;;;5017105;28;20220;-69
2022/12/30 04:08:02;;;;;;;3.30;1.87;;;9.90;99.90;;;;;;5011964;28;20676;-70
2022/12/30 04:10:27;;;;;;;2.10;1.50;;;10.00;99.90;;;;;;5016502;28;20252;-67
2022/12/30 04:12:53;;;;;;;3.93;1.60;;;10.00;99.90;;;;;;5021145;28;20184;-67
2022/12/30 04:15:18;;;;;;;3.63;1.80;;;10.00;99.90;;;;;;5015513;28;20189;-67
2022/12/30 04:17:44;;;;;;;3.50;1.70;;;10.00;99.90;;;;;;5013890;28;20195;-66
2022/12/30 04:20:10;;;;;;;2.47;1.87;;;10.00;99.90;;;;;;5017748;28;20220;-67
2022/12/30 04:22:35;;;;;;;3.03;1.80;;;10.00;99.90;;;;;;5017028;28;20507;-67
2022/12/30 04:25:01;;;;;;;2.63;1.70;;;10.00;99.90;;;;;;5015023;28;21346;-67
2022/12/30 04:27:26;;;;;;;3.13;1.90;;;10.00;99.90;;;;;;5014237;28;20216;-66
2022/12/30 04:29:52;;;;;;;3.07;1.70;;;10.00;99.90;;;;;;5019311;28;20279;-66
2022/12/30 04:32:17;;;;;;;4.97;1.90;;;10.00;99.90;;;;;;5018158;28;20196;-68
2022/12/30 04:34:43;;;;;;;7.47;1.97;;;10.00;99.90;;;;;;5015569;28;20196;-66
2022/12/30 04:37:08;;;;;;;6.83;2.27;;;10.00;99.90;;;;;;5017275;28;20342;-67
2022/12/30 04:39:34;;;;;;;3.43;2.00;;;10.00;99.90;;;;;;5016812;28;20212;-67
2022/12/30 04:42:00;;;;;;;2.40;1.80;;;9.90;99.90;;;;;;5017524;28;20184;-67
2022/12/30 04:44:25;;;;;;;3.93;2.60;;;9.90;99.90;;;;;;5020977;28;20212;-70
2022/12/30 04:46:51;;;;;;;3.03;2.00;;;9.90;99.90;;;;;;5017600;28;20269;-70
2022/12/30 04:49:16;;;;;;;2.60;2.10;;;9.90;99.90;;;;;;5015122;28;20188;-70
2022/12/30 04:51:42;;;;;;;4.87;1.90;;;9.90;99.90;;;;;;5018902;28;20215;-69
2022/12/30 04:54:07;;;;;;;7.53;3.03;;;9.90;99.90;;;;;;5016137;28;20197;-70
2022/12/30 04:56:33;;;;;;;3.90;2.23;;;9.90;99.90;;;;;;5013101;28;20291;-71
2022/12/30 04:58:58;;;;;;;3.93;2.27;;;9.90;99.90;;;;;;5011924;28;20220;-71
2022/12/30 05:01:24;;;;;;;3.83;2.00;;;9.80;99.90;;;;;;5017003;28;20669;-72
2022/12/30 05:03:49;;;;;;;3.67;1.80;;;9.80;99.90;;;;;;5015931;28;20212;-70
2022/12/30 05:06:15;;;;;;;3.13;1.90;;;9.80;99.90;;;;;;5013840;28;20335;-70
2022/12/30 05:08:40;;;;;;;4.23;1.93;;;9.80;99.90;;;;;;5013151;28;20689;-70
2022/12/30 05:11:06;;;;;;;3.67;1.70;;;9.80;99.90;;;;;;5015267;28;20191;-70
2022/12/30 05:13:31;;;;;;;7.17;1.87;;;9.80;99.90;;;;;;5017556;28;20195;-71
2022/12/30 05:15:57;;;;;;;5.70;2.87;;;9.80;99.90;;;;;;5014703;28;20274;-69
2022/12/30 05:18:22;;;;;;;3.30;1.70;;;9.80;99.90;;;;;;5018142;28;20450;-68
2022/12/30 05:20:48;;;;;;;2.83;1.60;;;9.80;99.90;;;;;;5012806;28;20188;-68
2022/12/30 05:26:16;;;;;;;4.70;2.00;;;9.80;99.90;;;;;;5012242;28;20586;-70
2022/12/30 05:28:44;;;;;;;3.70;1.67;;;9.80;99.90;;;;;;5015127;28;20435;-69
2022/12/30 05:31:10;;;;;;;5.03;1.90;;;9.80;99.90;;;;;;5016183;28;20443;-69
2022/12/30 05:33:35;;;;;;;4.63;1.60;;;9.80;99.90;;;;;;5011874;28;20454;-70
2022/12/30 05:36:01;;;;;;;6.70;2.40;;;9.80;99.90;;;;;;5018075;28;20462;-69
2022/12/30 05:38:27;;;;;;;6.80;1.70;;;9.80;99.90;;;;;;5017228;28;20275;-70
2022/12/30 05:40:52;;;;;;;7.10;2.20;;;9.80;99.90;;;;;;5019739;28;20539;-70
2022/12/30 05:43:18;;;;;;;4.20;1.80;;;9.80;99.90;;;;;;5014656;28;20713;-70
2022/12/30 05:45:43;;;;;;;2.97;2.40;;;9.70;99.90;;;;;;5017559;28;20830;-69
2022/12/30 05:48:09;;;;;;;4.70;1.90;;;9.70;99.90;;;;;;5012844;28;20192;-69
2022/12/30 05:50:34;;;;;;;4.43;2.00;;;9.70;99.90;;;;;;5017475;28;20223;-70
2022/12/30 05:53:00;;;;;;;5.70;2.20;;;9.70;99.90;;;;;;5015919;28;20188;-70
2022/12/30 05:55:25;;;;;;;3.93;1.90;;;9.70;99.90;;;;;;5016419;28;20191;-70
2022/12/30 05:57:51;;;;;;;3.60;2.10;;;9.60;99.90;;;;;;5010874;28;20200;-69
2022/12/30 06:00:17;;;;;;;3.60;1.83;;;9.60;99.90;;;;;;5016893;28;20200;-67
2022/12/30 06:02:42;;;;;;;6.40;2.47;;;9.60;99.90;;;;;;5012879;28;20413;-68
2022/12/30 06:05:08;;;;;;;3.43;2.10;;;9.60;99.90;;;;;;5015658;28;20256;-68
2022/12/30 06:07:34;;;;;;;4.77;2.00;;;9.60;99.90;;;;;;5012506;28;20211;-68
2022/12/30 06:09:59;;;;;;;3.43;2.00;;;9.60;99.90;;;;;;5011943;28;20440;-68
2022/12/30 06:12:25;;;;;;;5.17;2.60;;;9.60;99.90;;;;;;5017342;28;20255;-68
2022/12/30 06:14:50;;;;;;;6.97;2.50;;;9.50;99.90;;;;;;5011464;28;20199;-69
2022/12/30 06:17:16;;;;;;;7.43;2.43;;;9.50;99.90;;;;;;5016965;28;20211;-68
2022/12/30 06:19:44;;;;;;;4.70;2.47;;;9.50;99.90;;;;;;5016041;28;20279;-68
2022/12/30 06:22:09;;;;;;;3.97;2.50;;;9.50;99.90;;;;;;5018341;28;20223;-69
2022/12/30 06:24:35;;;;;;;4.97;2.77;;;9.40;99.90;;;;;;5010875;28;20431;-69
2022/12/30 06:27:00;;;;;;;4.47;2.87;;;9.40;99.90;;;;;;5012496;28;20201;-68
2022/12/30 06:29:26;;;;;;;6.53;3.10;;;9.40;99.90;;;;;;5017650;28;20181;-68
2022/12/30 06:31:52;;;;;;;10.67;3.67;;;9.40;99.90;;;;;;5010815;28;20408;-68
2022/12/30 06:34:17;;;;;;;5.20;2.50;;;9.40;99.90;;;;;;5020232;28;20242;-68
2022/12/30 06:36:43;;;;;;;5.10;2.90;;;9.40;99.90;;;;;;5015661;28;20236;-68
2022/12/30 06:39:08;;;;;;;3.53;2.50;;;9.40;99.90;;;;;;5013118;28;20669;-68
2022/12/30 06:41:34;;;;;;;6.87;2.53;;;9.30;99.90;;;;;;5016057;28;20376;-68
2022/12/30 06:43:59;;;;;;;5.23;2.30;;;9.30;99.90;;;;;;5016864;28;20193;-68
2022/12/30 06:46:25;;;;;;;6.20;2.33;;;9.30;99.90;;;;;;5021563;28;20185;-68
2022/12/30 06:48:50;;;;;;;7.27;2.60;;;9.30;99.90;;;;;;5016498;28;20181;-68
2022/12/30 06:51:16;;;;;;;4.10;2.30;;;9.30;99.90;;;;;;5017740;28;20207;-68
2022/12/30 06:53:41;;;;;;;5.50;2.33;;;9.20;99.90;;;;;;5017162;28;20418;-68
2022/12/30 06:56:07;;;;;;;4.80;2.20;;;9.30;99.90;;;;;;5016233;28;20248;-68
2022/12/30 06:58:33;;;;;;;5.00;2.30;;;9.20;99.90;;;;;;5017300;28;20213;-68
2022/12/30 07:00:58;;;;;;;6.70;2.23;;;9.20;99.90;;;;;;5017096;28;20673;-68
2022/12/30 07:03:24;;;;;;;3.13;2.50;;;9.20;99.90;;;;;;5019845;28;20195;-67
2022/12/30 07:05:50;;;;;;;4.70;2.50;;;9.20;99.90;;;;;;5017069;28;20208;-70
2022/12/30 07:08:16;;;;;;;5.80;2.77;;;9.20;99.90;;;;;;5014880;28;20185;-70
2022/12/30 07:10:42;;;;;;;7.30;2.27;;;9.20;99.90;;;;;;5011737;28;20304;-69
2022/12/30 07:13:09;;;;;;;4.70;2.50;;;9.10;99.90;;;;;;5018657;28;20959;-69
2022/12/30 07:15:34;;;;;;;5.10;2.13;;;9.10;99.90;;;;;;5015587;28;20842;-69
2022/12/30 07:18:00;;;;;;;4.80;2.23;;;9.10;99.90;;;;;;5013369;28;20438;-69
2022/12/30 07:20:25;;;;;;;3.00;2.30;;;9.10;99.90;;;;;;5015300;28;20894;-68
2022/12/30 07:22:51;;;;;;;3.83;2.33;;;9.10;99.90;;;;;;5016254;28;20181;-69
2022/12/30 07:25:16;;;;;;;8.00;2.27;;;9.10;99.90;;;;;;5016848;28;20185;-68
2022/12/30 07:27:42;;;;;;;3.20;2.30;;;9.10;99.90;;;;;;5017990;28;20231;-68
2022/12/30 07:30:08;;;;;;;6.93;2.67;;;9.10;99.90;;;;;;5014946;28;20195;-68
2022/12/30 07:32:33;;;;;;;7.10;2.40;;;9.00;99.90;;;;;;5018544;28;20280;-68
2022/12/30 07:34:59;;;;;;;4.50;2.30;;;9.00;99.90;;;;;;5017983;28;20515;-68
2022/12/30 07:37:24;;;;;;;4.80;2.47;;;9.00;99.90;;;;;;5014565;28;20212;-68
2022/12/30 07:39:50;;;;;;;5.03;2.33;;;9.00;99.90;;;;;;5015356;28;20204;-68
2022/12/30 07:42:16;;;;;;;5.87;2.80;;;9.00;99.90;;;;;;5014799;28;20654;-68
2022/12/30 07:44:42;;;;;;;9.23;2.70;;;9.00;99.90;;;;;;5016018;28;20562;-68
2022/12/30 07:47:07;;;;;;;4.47;2.80;;;9.00;99.90;;;;;;5015446;28;20572;-68
2022/12/30 07:49:34;;;;;;;3.10;2.10;;;9.00;99.90;;;;;;5015703;28;20562;-69
2022/12/30 07:51:59;;;;;;;4.93;2.33;;;9.00;99.90;;;;;;5014486;28;20193;-70
2022/12/30 07:54:25;;;;;;;10.30;2.70;;;9.00;99.90;;;;;;5009001;28;20451;-69
2022/12/30 07:56:50;;;;;;;5.00;2.43;;;9.00;99.90;;;;;;5017015;28;20263;-69
2022/12/30 07:59:16;;;;;;;6.40;2.83;;;9.00;99.90;;;;;;5017497;28;20203;-69
2022/12/30 08:01:42;;;;;;;5.03;2.30;;;9.00;99.90;;;;;;5013684;28;20655;-69
2022/12/30 08:04:07;;;;;;;10.90;2.80;;;9.00;99.90;;;;;;5014343;28;20450;-69
2022/12/30 08:06:33;;;;;;;5.20;2.80;;;9.00;99.90;;;;;;5016392;28;20697;-69
2022/12/30 08:09:03;;;;;;;4.53;2.77;;;9.00;99.90;;;;;;5012390;28;20202;-69
2022/12/30 08:11:29;;;;;;;6.70;2.60;;;9.00;99.90;;;;;;5015279;28;20254;-69
2022/12/30 08:13:54;;;;;;;6.13;2.70;;;9.00;99.90;;;;;;5023793;28;20443;-69
2022/12/30 08:16:20;;;;;;;5.93;3.23;;;9.00;99.90;;;;;;5022345;28;20673;-68
2022/12/30 08:18:45;;;;;;;7.73;3.17;;;9.10;99.90;;;;;;5020025;28;20397;-69
2022/12/30 08:21:13;;;;;;;7.07;3.60;;;9.10;99.90;;;;;;5019693;28;20180;-69
2022/12/30 08:23:39;;;;;;;6.90;3.33;;;9.10;99.90;;;;;;5017033;28;20258;-69
2022/12/30 08:26:08;;;;;;;10.90;3.03;;;9.10;99.90;;;;;;5013126;28;20455;-69
2022/12/30 08:28:35;;;;;;;5.10;3.03;;;9.10;99.90;;;;;;5011064;28;20219;-68
2022/12/30 08:31:05;;;;;;;7.33;2.80;;;9.10;99.90;;;;;;5014206;28;22430;-68
2022/12/30 08:33:31;;;;;;;6.50;3.00;;;9.10;99.90;;;;;;5010959;28;20458;-69
2022/12/30 08:36:01;;;;;;;6.33;3.57;;;9.20;99.90;;;;;;5013493;28;21539;-69
2022/12/30 08:38:26;;;;;;;6.07;3.30;;;9.20;99.90;;;;;;5011937;28;20307;-68
2022/12/30 08:40:52;;;;;;;5.03;3.50;;;9.20;99.90;;;;;;5010036;28;20960;-69
2022/12/30 08:43:18;;;;;;;12.40;3.93;;;9.20;99.90;;;;;;5013237;28;20208;-68
2022/12/30 08:45:44;;;;;;;9.33;3.90;;;9.30;99.90;;;;;;5011588;28;20201;-69
2022/12/30 08:48:10;;;;;;;12.00;5.53;;;9.30;99.90;;;;;;5010282;28;21057;-69
2022/12/30 08:50:35;;;;;;;8.80;4.20;;;9.30;99.90;;;;;;5010199;28;20176;-68
2022/12/30 08:53:01;;;;;;;9.13;3.90;;;9.30;99.90;;;;;;5006274;28;20180;-69
2022/12/30 08:55:27;;;;;;;5.60;2.80;;;9.30;99.90;;;;;;5011936;28;20199;-69
2022/12/30 08:57:53;;;;;;;7.13;3.00;;;9.40;99.90;;;;;;5011788;28;20200;-69
2022/12/30 09:00:19;;;;;;;7.53;3.20;;;9.40;99.90;;;;;;5021028;28;21294;-69
2022/12/30 09:02:44;;;;;;;6.43;3.00;;;9.40;99.90;;;;;;5014972;28;20203;-69
2022/12/30 09:05:10;;;;;;;5.57;3.03;;;9.40;99.90;;;;;;5013301;28;21045;-68
2022/12/30 09:07:36;;;;;;;4.87;2.90;;;9.40;99.90;;;;;;5013469;28;20242;-69
2022/12/30 09:10:02;;;;;;;5.07;2.60;;;9.50;99.90;;;;;;5016048;28;20226;-69
2022/12/30 09:12:28;;;;;;;7.47;2.70;;;9.60;99.90;;;;;;5013673;28;20440;-70
2022/12/30 09:14:53;;;;;;;3.37;2.40;;;9.60;99.90;;;;;;5012244;28;20681;-70
2022/12/30 09:17:19;;;;;;;5.90;2.40;;;9.70;99.90;;;;;;5011742;28;20204;-70
2022/12/30 09:19:44;;;;;;;6.53;3.13;;;9.80;99.90;;;;;;5013891;28;20212;-67
2022/12/30 09:22:10;;;;;;;5.77;2.90;;;9.80;99.90;;;;;;5005033;28;20183;-68
2022/12/30 09:24:35;;;;;;;4.57;3.10;;;9.90;99.90;;;;;;5007632;28;20211;-68
2022/12/30 09:27:01;;;;;;;7.83;2.97;;;9.90;99.90;;;;;;5010963;28;20223;-69
2022/12/30 09:29:27;;;;;;;10.87;4.70;;;9.90;99.90;;;;;;5014456;28;20557;-68
2022/12/30 09:31:52;;;;;;;5.00;3.20;;;10.00;99.90;;;;;;5013527;28;20211;-68
2022/12/30 09:34:18;;;;;;;4.40;3.17;;;10.00;99.90;;;;;;5010038;28;20644;-68
2022/12/30 09:36:43;;;;;;;5.90;3.60;;;10.00;99.90;;;;;;5014178;28;20303;-69
2022/12/30 09:39:10;;;;;;;4.63;3.30;;;10.00;99.90;;;;;;5011514;28;20207;-69
2022/12/30 09:45:23;;;;;;;9.00;3.40;;;10.00;99.90;;;;;;5011451;28;20497;-67
2022/12/30 09:47:52;;;;;;;7.87;4.10;;;10.00;99.90;;;;;;5012979;28;20810;-67
2022/12/30 09:50:23;;;;;;;8.13;4.00;;;10.00;99.90;;;;;;5008616;28;21268;-66
2022/12/30 09:53:13;;;;;;;8.07;4.17;;;10.10;99.90;;;;;;5018245;28;20466;-67
2022/12/30 09:55:57;;;;;;;8.23;3.57;;;10.10;99.90;;;;;;5016498;28;20459;-65
2022/12/30 09:58:29;;;;;;;5.90;2.70;;;10.20;99.90;;;;;;5011704;28;20910;-67
2022/12/30 10:00:58;;;;;;;7.10;2.90;;;10.20;99.90;;;;;;5011818;28;20442;-67
2022/12/30 10:03:25;;;;;;;5.03;3.07;;;10.20;99.90;;;;;;5013945;28;20441;-67
2022/12/30 10:06:09;;;;;;;7.63;3.90;;;10.30;99.90;;;;;;5012288;28;20456;-67
2022/12/30 10:08:57;;;;;;;5.70;3.33;;;10.30;99.90;;;;;;5012895;28;20443;-67
2022/12/30 10:11:55;;;;;;;9.23;3.70;;;10.40;99.90;;;;;;5011564;28;20443;-68
2022/12/30 10:14:55;;;;;;;7.47;4.00;;;10.50;99.90;;;;;;5020504;28;21253;-68
2022/12/30 10:17:48;;;;;;;5.00;3.90;;;10.60;99.90;;;;;;5014476;28;20805;-68
2022/12/30 10:20:41;;;;;;;4.10;2.70;;;10.60;99.90;;;;;;5015000;28;20467;-68
2022/12/30 10:23:29;;;;;;;4.13;2.60;;;10.70;99.90;;;;;;5009416;28;20443;-68
2022/12/30 10:26:14;;;;;;;3.23;2.50;;;10.80;99.90;;;;;;5016118;28;20463;-68
2022/12/30 10:28:56;;;;;;;6.20;3.13;;;10.80;99.90;;;;;;5013548;28;20443;-68
2022/12/30 10:31:25;;;;;;;4.33;3.47;;;10.90;99.90;;;;;;5016975;28;21038;-69
2022/12/30 10:33:53;;;;;;;4.87;2.90;;;11.00;99.90;;;;;;5014233;28;20446;-68
2022/12/30 10:36:48;;;;;;;5.07;2.70;;;11.00;99.90;;;;;;5012777;28;20486;-70
2022/12/30 10:39:24;;;;;;;2.57;2.37;;;11.10;99.90;;;;;;5012371;28;21053;-71
2022/12/30 10:42:11;;;;;;;4.60;2.60;;;11.20;99.90;;;;;;5013901;28;20478;-72
2022/12/30 10:45:11;;;;;;;7.43;3.03;;;11.30;99.90;;;;;;5007777;28;20841;-69
2022/12/30 10:48:04;;;;;;;5.60;2.50;;;11.40;99.90;;;;;;5017865;28;20996;-68
2022/12/30 10:50:36;;;;;;;4.50;2.63;;;11.40;99.90;;;;;;5012267;28;20526;-68
2022/12/30 10:53:04;;;;;;;5.10;2.37;;;11.50;99.90;;;;;;5017194;28;20489;-67
2022/12/30 10:55:33;;;;;;;4.80;2.37;;;11.40;99.90;;;;;;5010459;28;20454;-67
2022/12/30 10:58:03;;;;;;;5.10;2.50;;;11.50;99.90;;;;;;5014256;28;20556;-68
2022/12/30 11:00:32;;;;;;;4.30;3.10;;;11.60;99.90;;;;;;5010013;28;20529;-68
2022/12/30 11:03:04;;;;;;;7.07;2.60;;;11.70;99.90;;;;;;5010806;28;20432;-68
2022/12/30 11:05:34;;;;;;;5.10;2.70;;;11.70;99.90;;;;;;5015293;28;20518;-68
2022/12/30 11:08:04;;;;;;;6.80;2.67;;;11.80;99.90;;;;;;5003248;28;20495;-69
2022/12/30 11:10:30;;;;;;;4.40;2.50;;;11.80;99.90;;;;;;5016010;28;20439;-69
2022/12/30 11:15:54;;;;;;;4.60;2.33;;;11.90;99.90;;;;;;5015265;28;21116;-69
2022/12/30 11:18:24;;;;;;;5.30;3.03;;;12.00;99.90;;;;;;5015817;28;20439;-68
2022/12/30 11:20:56;;;;;;;5.47;2.57;;;12.00;99.90;;;;;;5013489;28;20432;-66
2022/12/30 11:23:24;;;;;;;5.00;2.67;;;12.10;99.90;;;;;;5007043;28;20744;-67
2022/12/30 11:25:50;;;;;;;4.63;2.23;;;12.10;99.90;;;;;;5016586;28;20459;-67
2022/12/30 11:28:27;;;;;;;3.60;2.10;;;12.20;99.90;;;;;;5014051;28;20439;-65
2022/12/30 11:30:52;;;;;;;5.07;2.70;;;12.20;99.90;;;;;;5020023;28;20508;-66
2022/12/30 11:33:25;;;;;;;3.10;2.30;;;12.30;99.90;;;;;;5014717;28;20941;-67
2022/12/30 11:35:51;;;;;;;4.43;2.27;;;12.30;99.90;;;;;;5017139;28;20208;-67
2022/12/30 11:38:33;;;;;;;5.23;2.53;;;12.30;99.90;;;;;;5012866;28;20471;-67
2022/12/30 11:41:26;;;;;;;4.90;2.30;;;12.40;99.90;;;;;;5012023;28;20803;-67
2022/12/30 11:43:58;;;;;;;9.33;3.43;;;12.40;99.90;;;;;;5018952;28;20902;-67
2022/12/30 11:46:27;;;;;;;6.00;2.60;;;12.50;99.90;;;;;;5011946;28;20443;-67
2022/12/30 11:48:56;;;;;;;3.90;2.50;;;12.50;99.90;;;;;;5007313;28;20473;-66
2022/12/30 11:51:43;;;;;;;3.47;2.10;;;12.40;99.90;;;;;;5013499;28;21016;-68
2022/12/30 11:54:11;;;;;;;4.00;2.43;;;12.40;99.90;;;;;;5011490;28;20826;-67
2022/12/30 11:56:58;;;;;;;3.43;2.40;;;12.40;99.90;;;;;;5007752;28;20465;-67
2022/12/30 11:59:42;;;;;;;3.07;2.30;;;12.40;99.90;;;;;;5013145;28;20469;-67
2022/12/30 12:02:23;;;;;;;4.33;2.33;;;12.50;99.90;;;;;;5015493;28;20470;-69
2022/12/30 12:04:49;;;;;;;3.27;2.50;;;12.50;99.90;;;;;;5014518;28;20878;-68
2022/12/30 12:07:15;;;;;;;5.37;2.83;;;12.50;99.90;;;;;;5013356;28;20846;-68
2022/12/30 12:09:57;;;;;;;5.03;3.20;;;12.50;99.90;;;;;;5011362;28;20454;-67
2022/12/30 12:12:27;;;;;;;3.60;2.67;;;12.50;99.90;;;;;;5017243;28;20204;-68
2022/12/30 12:15:19;;;;;;;4.60;2.73;;;12.50;99.90;;;;;;5014428;28;20453;-68
2022/12/30 12:17:57;;;;;;;5.50;2.97;;;12.50;99.90;;;;;;5005270;28;20810;-69
2022/12/30 12:20:41;;;;;;;5.17;3.23;;;12.50;99.90;;;;;;5013391;28;20540;-66
2022/12/30 12:23:52;;;;;;;4.73;2.90;;;12.50;99.90;;;;;;5014661;28;20507;-68
2022/12/30 12:26:22;;;;;;;3.30;2.40;;;12.50;99.90;;;;;;5009560;28;20464;-68
2022/12/30 12:28:51;;;;;;;3.83;2.53;;;12.40;99.90;;;;;;5010111;28;20682;-68
2022/12/30 12:31:28;;;;;;;6.47;3.17;;;12.50;99.90;;;;;;5006176;28;20443;-66
2022/12/30 12:34:26;;;;;;;2.90;2.20;;;12.50;99.90;;;;;;5016393;28;20496;-66
2022/12/30 12:37:22;;;;;;;5.67;3.10;;;12.50;99.90;;;;;;4995933;28;20467;-65
2022/12/30 12:40:04;;;;;;;3.50;2.67;;;12.60;99.90;;;;;;5013606;28;20473;-68
2022/12/30 12:42:54;;;;;;;6.13;4.40;;;12.60;99.90;;;;;;5004868;28;20836;-67
2022/12/30 12:45:41;;;;;;;6.83;4.10;;;12.70;99.90;;;;;;5008323;28;20471;-66
2022/12/30 12:48:06;;;;;;;4.80;3.87;;;12.80;99.90;;;;;;5011795;28;20431;-66
2022/12/30 12:51:01;;;;;;;7.13;3.90;;;13.00;99.90;;;;;;5010293;28;20501;-68
2022/12/30 12:53:27;;;;;;;6.93;3.80;;;13.00;99.90;;;;;;5008489;28;20942;-66
2022/12/30 12:56:21;;;;;;;12.20;4.50;;;13.20;99.90;;;;;;5008512;28;20458;-68
2022/12/30 12:58:56;;;;;;;5.70;3.70;;;13.30;99.90;;;;;;5015977;28;20212;-67
2022/12/30 13:01:46;;;;;;;7.37;3.57;;;13.30;99.90;;;;;;5012937;28;20529;-69
2022/12/30 13:04:38;;;;;;;4.40;3.83;;;13.40;99.90;;;;;;5015015;28;20447;-67
2022/12/30 13:07:13;;;;;;;5.37;3.00;;;13.40;99.90;;;;;;5013071;28;20538;-68
2022/12/30 13:09:41;;;;;;;4.27;3.13;;;13.40;99.90;;;;;;5010270;28;20449;-68
2022/12/30 13:12:07;;;;;;;4.60;2.50;;;13.20;99.90;;;;;;5010563;28;20489;-67
2022/12/30 13:14:41;;;;;;;4.80;2.80;;;13.20;99.90;;;;;;5011443;28;20947;-66
2022/12/30 13:17:25;;;;;;;6.30;2.67;;;13.20;99.90;;;;;;5013449;28;20241;-67
2022/12/30 13:19:55;;;;;;;4.23;3.27;;;13.20;99.90;;;;;;5013993;28;20503;-67
2022/12/30 13:22:25;;;;;;;4.83;2.70;;;13.30;99.90;;;;;;5019114;28;20521;-65
2022/12/30 13:24:53;;;;;;;5.40;3.00;;;13.30;99.90;;;;;;5009872;28;20442;-67
2022/12/30 13:27:29;;;;;;;7.50;2.70;;;13.30;99.90;;;;;;5011927;28;20476;-67
2022/12/30 13:29:56;;;;;;;3.73;2.37;;;13.20;99.90;;;;;;5028342;28;20537;-68
2022/12/30 13:33:02;;;;;;;5.23;2.50;;;13.20;99.90;;;;;;5011672;28;20439;-67
2022/12/30 13:35:33;;;;;;;4.80;2.20;;;13.20;99.90;;;;;;5012448;28;20462;-67
2022/12/30 13:38:23;;;;;;;6.90;3.00;;;13.10;99.90;;;;;;5011073;28;21520;-68
2022/12/30 13:41:14;;;;;;;3.77;2.60;;;13.10;99.90;;;;;;5007509;28;20488;-68
2022/12/30 13:43:46;;;;;;;5.43;3.47;;;13.10;99.90;;;;;;5016756;28;20799;-68
2022/12/30 13:46:17;;;;;;;4.47;3.40;;;13.00;99.90;;;;;;5016853;28;20554;-68
2022/12/30 13:48:52;;;;;;;4.97;3.60;;;13.00;99.90;;;;;;5013492;28;20807;-75
2022/12/30 13:51:21;;;;;;;4.10;2.77;;;12.90;99.90;;;;;;5012706;28;20453;-67
2022/12/30 13:54:18;;;;;;;5.37;3.07;;;13.00;99.90;;;;;;5015357;28;20447;-70
2022/12/30 13:56:48;;;;;;;7.10;3.60;;;12.90;99.90;;;;;;5012151;28;20878;-71
2022/12/30 13:59:35;;;;;;;4.13;2.90;;;12.90;99.90;;;;;;5011193;28;20482;-71
2022/12/30 14:02:19;;;;;;;12.83;4.03;;;12.80;99.90;;;;;;5015826;28;20436;-71
2022/12/30 14:04:56;;;;;;;7.50;4.00;;;12.90;99.90;;;;;;5013359;28;20877;-72
2022/12/30 14:07:37;;;;;;;14.30;5.50;;;12.70;99.90;;;;;;5008087;28;20451;-72
2022/12/30 14:10:15;;;;;;;6.90;4.13;;;12.70;99.90;;;;;;5013163;28;20474;-72